Fishkill, New York
Current Conditions -  °F | °C
As of 4:53 PM on Sunday 21 Dec 2014 (Local Time) from KPOU Reporting Station
Overcast Overcast  
Wind Chill: 28°   Ceiling: 2700
Heat Index: 33°   Visibility: 10mi
Dew Point: 26°   Wind: 6mph
Humidity: 75%   Direction: 360°N
Pressure: 30.32"   Gusts: NA
Location:  41.54°N, 73.9°W
Report Text: KPOU 212153Z 36005KT 10SM OVC027 01/M03 A3032 RMK AO2 SLP265 T00061033
Loading
Personal Weather Stations






























Interactive Weather Map New forecast layout! Learn more

10-Day Weather Forecast

Advertisements
Track Severe Weather on mobile